Terminal Aerodrome Forecast
Issued by NWS

Home | Current Version | Previous Version | Text Only | Print | Product List | Glossary On
Versions: 1 2 3 4 5 6 7 8 9 10 11 12 13 14 15 16 17 18
000
FTUS43 KILX 200304 AAA
TAFDEC
TAF AMD
KDEC 200304Z 2003/2024 15007KT 4SM BR BKN250
     FM200500 16007KT 1/4SM FG VV002
     FM201500 15014KT 1 1/2SM BR OVC004
     FM201700 15014G22KT P6SM OVC035=

USA.gov is the U.S. government's official web portal to all federal, state and local government web resources and services.